ADDS METAR Data INFO
IDs: Format: Raw Decoded Include TAF

Data at: 1119 UTC 21 Feb 2018

PAWG 201456Z 13005KT 10SM SCT100 M07/M09 A3036 RMK AO2 SLP281 T10721089 51014
PAWG 201356Z AUTO 23005KT 10SM CLR M06/M09 A3035 RMK AO2 SLP278 T10561089 FZRANO TSNO
PAWG 201256Z AUTO 27008KT 10SM CLR M04/M08 A3033 RMK AO2 SLP271 T10441078 FZRANO TSNO
PAWG 201156Z AUTO 28005KT 10SM CLR M06/M08 A3032 RMK AO2 SLP266 T10561083 11039 21078 53005 FZRANO TSNO
PAWG 200956Z AUTO 00000KT 10SM CLR M07/M11 A3029 RMK AO2 SLP260 T10721106 FZRANO TSNO
PAWG 200856Z AUTO 19004KT 10SM CLR M07/M11 A3030 RMK AO2 SLP262 T10671106 410111067 53013 FZRANO TSNO
PAWG 200756Z AUTO 00000KT 10SM CLR M06/M10 A3028 RMK AO2 SLP255 T10561100 FZRANO TSNO
PAWG 200656Z 21006KT 10SM CLR M06/M10 A3027 RMK AO2 SLP252 T10561100
PAWG 200556Z 19004KT 10SM CLR M06/M10 A3026 RMK AO2 SLP249 T10611100 11017 21061 53007
PAWG 200456Z 17004KT 10SM FEW080 M05/M09 A3025 RMK AO2 SLP245 T10501094
PAWG 200356Z 19004KT 10SM FEW080 M04/M09 A3025 RMK AO2 SLP246 T10441094
PAWG 200256Z 20006KT 10SM FEW080 M03/M09 A3024 RMK AO2 SLP243 T10331094 53006
PAWG 200156Z 23005KT 10SM SCT070 M03/M10 A3024 RMK AO2 SLP240 T10281100
PAWG 200056Z 25006KT 10SM SCT070 M02/M11 A3022 RMK AO2 SLP235 T10221106
PAWG 192356Z 29007KT 10SM SCT070 M02/M09 A3023 RMK AO2 SLP236 T10171094 11011 21044 56018